Time;durP1;ratioP1;P1;durP2;ratioP2;P2;SDS_P1;SDS_P2;PMS_P1;PMS_P2;Temp;Humidity;BMP_temperature;BMP_pressure;BME280_temperature;BME280_humidity;BME280_pressure;Samples;Min_cycle;Max_cycle;Signal;HPM_P1;HPM_P2
2023/07/27 00:02:14;;;;;;;;;2.00;1.00;;;;;23.60;100.00;100761.84;5026731;28;55997;-85
2023/07/27 00:04:39;;;;;;;;;1.00;1.00;;;;;23.58;100.00;100753.81;5035443;28;61083;-86
2023/07/27 00:07:05;;;;;;;;;1.00;1.00;;;;;23.56;100.00;100760.22;5029594;28;45483;-84
2023/07/27 00:09:30;;;;;;;;;2.00;1.00;;;;;23.56;100.00;100755.72;5032664;28;46378;-84
2023/07/27 00:11:55;;;;;;;;;2.00;1.00;;;;;23.55;100.00;100761.19;5035711;28;59268;-85
2023/07/27 00:14:21;;;;;;;;;1.00;1.00;;;;;23.55;100.00;100758.47;5030249;28;45403;-85
2023/07/27 00:16:46;;;;;;;;;1.00;1.00;;;;;23.54;100.00;100757.56;5027256;28;60829;-84
2023/07/27 00:19:12;;;;;;;;;1.00;1.00;;;;;23.55;100.00;100762.03;5034532;28;45882;-85
2023/07/27 00:21:37;;;;;;;;;1.67;1.67;;;;;23.55;100.00;100745.88;5032255;28;45182;-84
2023/07/27 00:24:02;;;;;;;;;1.00;1.00;;;;;23.56;100.00;100741.34;5033698;28;49514;-85
2023/07/27 00:26:28;;;;;;;;;0.67;0.67;;;;;23.54;100.00;100738.72;5045452;28;45542;-85
2023/07/27 00:28:53;;;;;;;;;0.33;0.00;;;;;23.54;100.00;100730.63;5036093;28;46753;-85
2023/07/27 00:31:18;;;;;;;;;1.33;1.00;;;;;23.51;100.00;100726.25;5035654;28;60291;-84
2023/07/27 00:33:44;;;;;;;;;1.00;1.00;;;;;23.49;100.00;100721.91;5034526;28;62395;-84
2023/07/27 00:36:09;;;;;;;;;1.00;1.00;;;;;23.50;100.00;100729.03;5034337;28;60257;-84
2023/07/27 00:38:34;;;;;;;;;1.33;1.00;;;;;23.50;100.00;100739.81;5035446;28;68077;-84
2023/07/27 00:41:00;;;;;;;;;3.67;1.00;;;;;23.45;100.00;100734.63;5035011;28;63918;-83
2023/07/27 00:43:25;;;;;;;;;1.00;1.00;;;;;23.45;100.00;100733.75;5034389;28;45787;-84
2023/07/27 00:45:51;;;;;;;;;1.67;1.67;;;;;23.47;100.00;100737.22;5033210;28;45529;-85
2023/07/27 00:48:17;;;;;;;;;2.00;1.00;;;;;23.45;100.00;100733.75;5030217;28;46333;-84
2023/07/27 00:50:43;;;;;;;;;1.00;1.00;;;;;23.43;100.00;100731.09;5032648;28;45348;-84
2023/07/27 00:53:08;;;;;;;;;1.00;1.00;;;;;23.43;100.00;100741.00;5015318;28;45703;-84
2023/07/27 00:55:35;;;;;;;;;1.33;1.33;;;;;23.40;100.00;100723.16;5035392;28;45295;-84
2023/07/27 00:58:01;;;;;;;;;1.00;1.00;;;;;23.40;100.00;100723.16;5035176;28;46734;-84
2023/07/27 01:00:27;;;;;;;;;1.00;1.00;;;;;23.38;100.00;100726.84;5035017;28;45277;-84
2023/07/27 01:02:53;;;;;;;;;1.00;1.00;;;;;23.37;100.00;100717.88;5034565;28;45549;-84
2023/07/27 01:05:18;;;;;;;;;1.33;1.33;;;;;23.36;100.00;100723.34;5031686;28;45614;-82
2023/07/27 01:07:43;;;;;;;;;2.00;2.00;;;;;23.33;100.00;100718.09;5020021;28;45726;-86
2023/07/27 01:10:10;;;;;;;;;1.00;1.00;;;;;23.29;100.00;100706.59;5034774;28;58510;-84
2023/07/27 01:12:43;;;;;;;;;1.00;1.00;;;;;23.27;100.00;100703.06;5018137;28;45296;-84
2023/07/27 01:15:18;;;;;;;;;0.00;0.00;;;;;23.24;100.00;100706.78;5024618;28;45555;-84
2023/07/27 01:17:53;;;;;;;;;0.00;0.00;;;;;23.24;100.00;100705.91;5030786;28;46013;-84
2023/07/27 01:20:24;;;;;;;;;1.00;1.00;;;;;23.23;100.00;100705.03;5027398;28;45444;-84
2023/07/27 01:23:14;;;;;;;;;1.00;1.00;;;;;23.20;100.00;100702.47;5035555;28;45329;-84
2023/07/27 01:26:01;;;;;;;;;1.00;1.00;;;;;23.17;100.00;100699.03;5035136;28;45493;-84
2023/07/27 01:28:44;;;;;;;;;1.00;1.00;;;;;23.14;100.00;100704.56;5024208;28;47763;-84
2023/07/27 01:31:13;;;;;;;;;1.00;1.00;;;;;23.14;100.00;100699.16;5029974;28;45439;-84
2023/07/27 01:33:42;;;;;;;;;1.00;1.00;;;;;23.12;100.00;100695.69;5030135;28;45344;-85
2023/07/27 01:36:18;;;;;;;;;2.33;1.00;;;;;23.09;100.00;100690.41;5034184;28;45543;-84
2023/07/27 01:38:45;;;;;;;;;1.00;1.00;;;;;23.08;100.00;100691.34;5035291;28;45516;-85
2023/07/27 01:41:11;;;;;;;;;0.00;0.00;;;;;23.07;100.00;100684.22;5036465;28;45319;-84
2023/07/27 01:43:39;;;;;;;;;1.00;0.67;;;;;23.04;100.00;100682.53;5050881;28;45513;-85
2023/07/27 01:46:08;;;;;;;;;1.00;1.00;;;;;23.02;100.00;100670.09;5026367;28;45455;-84
2023/07/27 01:48:33;;;;;;;;;0.67;0.67;;;;;22.96;100.00;100677.47;5027702;28;71124;-84
2023/07/27 01:50:59;;;;;;;;;2.00;1.00;;;;;22.94;100.00;100675.78;5033882;28;63735;-84
2023/07/27 01:53:28;;;;;;;;;0.00;0.00;;;;;22.96;100.00;100673.91;5037161;28;45349;-84
2023/07/27 01:55:54;;;;;;;;;0.33;0.33;;;;;22.93;100.00;100672.22;5037718;28;45368;-86
2023/07/27 01:58:20;;;;;;;;;1.67;1.00;;;;;22.93;100.00;100665.97;5019396;28;68944;-84
2023/07/27 02:00:46;;;;;;;;;1.00;1.00;;;;;22.93;100.00;100657.88;5027550;28;46475;-86
2023/07/27 02:03:12;;;;;;;;;2.00;0.00;;;;;22.92;100.00;100673.16;5035621;28;45523;-84
2023/07/27 02:05:37;;;;;;;;;1.00;1.00;;;;;22.91;100.00;100671.41;5020169;28;62864;-84
2023/07/27 02:08:02;;;;;;;;;1.00;1.00;;;;;22.90;100.00;100669.63;5019468;28;69345;-85
2023/07/27 02:10:30;;;;;;;;;0.67;0.67;;;;;22.87;100.00;100671.56;5037380;28;45533;-84
2023/07/27 02:13:04;;;;;;;;;1.00;1.00;;;;;22.84;100.00;100669.88;5037161;28;45544;-84
2023/07/27 02:15:38;;;;;;;;;1.00;0.67;;;;;22.83;100.00;100673.50;5037281;28;45518;-85
2023/07/27 02:18:08;;;;;;;;;0.00;0.00;;;;;22.83;100.00;100659.19;5036666;28;46486;-85
2023/07/27 02:20:35;;;;;;;;;1.00;0.33;;;;;22.82;100.00;100662.81;5037123;28;45317;-84
2023/07/27 02:23:01;;;;;;;;;0.33;0.33;;;;;22.80;100.00;100653.91;5036928;28;45326;-84
2023/07/27 02:25:27;;;;;;;;;1.00;1.00;;;;;22.78;100.00;100647.72;5038583;28;45392;-84
2023/07/27 02:27:52;;;;;;;;;0.00;0.00;;;;;22.77;100.00;100652.22;5037050;28;45274;-87
2023/07/27 02:30:18;;;;;;;;;2.33;1.00;;;;;22.76;100.00;100661.25;5035492;28;69805;-84
2023/07/27 02:32:43;;;;;;;;;0.00;0.00;;;;;22.71;100.00;100655.19;5038478;28;45830;-84
2023/07/27 02:35:09;;;;;;;;;0.00;0.00;;;;;22.73;100.00;100656.00;5037322;28;62157;-84
2023/07/27 02:37:34;;;;;;;;;1.00;1.00;;;;;22.72;100.00;100652.44;5037914;28;47522;-84
2023/07/27 02:39:59;;;;;;;;;0.00;0.00;;;;;22.72;100.00;100641.66;5023673;28;64777;-84
2023/07/27 02:42:24;;;;;;;;;1.67;1.00;;;;;22.69;100.00;100649.88;5023932;28;64403;-86
2023/07/27 02:44:50;;;;;;;;;0.00;0.00;;;;;22.68;100.00;100653.50;5037554;28;61639;-84
2023/07/27 02:47:15;;;;;;;;;0.00;0.00;;;;;22.67;100.00;100642.78;5026912;28;45741;-84
2023/07/27 02:49:41;;;;;;;;;0.00;0.00;;;;;22.63;100.00;100644.72;5036671;28;46041;-84
2023/07/27 02:52:06;;;;;;;;;0.67;0.67;;;;;22.62;100.00;100650.19;5019893;28;45500;-85
2023/07/27 02:54:32;;;;;;;;;0.00;0.00;;;;;22.58;100.00;100651.25;5019602;28;45420;-83
2023/07/27 02:56:57;;;;;;;;;0.00;0.00;;;;;22.57;100.00;100655.75;5036443;28;65157;-85
2023/07/27 02:59:23;;;;;;;;;1.00;1.00;;;;;22.57;100.00;100660.25;5043797;28;45570;-85
2023/07/27 03:01:48;;;;;;;;;2.33;0.00;;;;;22.53;100.00;100656.84;5035640;28;45576;-85
2023/07/27 03:04:13;;;;;;;;;1.00;1.00;;;;;22.49;100.00;100669.53;5037863;28;45237;-83
2023/07/27 03:06:39;;;;;;;;;0.00;0.00;;;;;22.44;100.00;100660.78;5036390;28;63817;-84
2023/07/27 03:09:05;;;;;;;;;0.00;0.00;;;;;22.34;100.00;100654.00;5037589;28;45438;-84
2023/07/27 03:11:30;;;;;;;;;0.00;0.00;;;;;22.28;100.00;100667.72;5035856;28;45332;-84
2023/07/27 03:13:56;;;;;;;;;0.00;0.00;;;;;22.25;100.00;100662.44;5037144;28;58313;-85
2023/07/27 03:16:22;;;;;;;;;0.00;0.00;;;;;22.21;100.00;100656.34;5037238;28;46547;-84
2023/07/27 03:18:47;;;;;;;;;0.00;0.00;;;;;22.16;100.00;100666.41;5036253;28;60839;-84
2023/07/27 03:21:12;;;;;;;;;0.00;0.00;;;;;22.10;100.00;100655.84;5035330;28;54631;-84
2023/07/27 03:23:38;;;;;;;;;0.00;0.00;;;;;22.08;100.00;100667.59;5030822;28;45127;-83
2023/07/27 03:26:13;;;;;;;;;0.00;0.00;;;;;22.04;100.00;100666.81;5032675;28;62248;-85
2023/07/27 03:28:38;;;;;;;;;1.00;1.00;;;;;22.00;100.00;100667.00;5035275;28;45455;-84
2023/07/27 03:31:23;;;;;;;;;0.00;0.00;;;;;22.01;100.00;100676.84;5036043;28;51694;-84
2023/07/27 03:33:49;;;;;;;;;0.00;0.00;;;;;21.96;100.00;100675.19;5037132;28;45246;-84
2023/07/27 03:36:20;;;;;;;;;0.00;0.00;;;;;21.97;100.00;100670.69;5028134;28;45459;-84
2023/07/27 03:38:46;;;;;;;;;0.00;0.00;;;;;21.94;100.00;100671.72;5033657;28;45464;-84
2023/07/27 03:41:12;;;;;;;;;2.00;0.00;;;;;21.93;100.00;100675.31;5036091;28;45395;-84
2023/07/27 03:43:37;;;;;;;;;2.00;1.00;;;;;21.94;100.00;100669.03;5022423;28;45451;-83
2023/07/27 03:46:03;;;;;;;;;0.00;0.00;;;;;21.96;100.00;100668.94;5029824;28;46262;-84
2023/07/27 03:48:28;;;;;;;;;0.00;0.00;;;;;21.95;100.00;100672.59;5020263;28;62260;-84
2023/07/27 03:50:53;;;;;;;;;0.00;0.00;;;;;21.95;100.00;100662.69;5035270;28;63119;-84
2023/07/27 03:53:19;;;;;;;;;0.00;0.00;;;;;21.97;100.00;100660.81;5035680;28;46781;-85
2023/07/27 03:55:45;;;;;;;;;0.00;0.00;;;;;21.94;100.00;100660.94;5036927;28;46415;-83
2023/07/27 03:58:10;;;;;;;;;2.00;0.00;;;;;21.91;100.00;100653.00;5033845;28;45203;-84
2023/07/27 04:00:35;;;;;;;;;0.33;0.00;;;;;21.92;100.00;100668.19;5026892;28;45184;-83
2023/07/27 04:03:01;;;;;;;;;0.00;0.00;;;;;21.89;100.00;100662.03;5034424;28;59428;-85
2023/07/27 04:05:26;;;;;;;;;0.00;0.00;;;;;21.86;100.00;100665.72;5036826;28;47803;-83
2023/07/27 04:07:52;;;;;;;;;0.00;0.00;;;;;21.89;100.00;100671.00;5034151;28;63791;-85
2023/07/27 04:10:18;;;;;;;;;0.00;0.00;;;;;21.88;100.00;100666.53;5034822;28;45294;-84
2023/07/27 04:12:43;;;;;;;;;0.00;0.00;;;;;21.88;100.00;100665.66;5035554;28;45494;-84
2023/07/27 04:15:09;;;;;;;;;1.00;0.00;;;;;21.91;100.00;100671.81;5032030;28;49794;-84
2023/07/27 04:17:34;;;;;;;;;0.00;0.00;;;;;21.91;100.00;100665.56;5035459;28;45424;-84
2023/07/27 04:20:00;;;;;;;;;0.00;0.00;;;;;21.92;100.00;100670.00;5032077;28;45782;-84
2023/07/27 04:22:25;;;;;;;;;1.00;1.00;;;;;21.93;100.00;100661.88;5032823;28;60505;-85
2023/07/27 04:24:50;;;;;;;;;0.00;0.00;;;;;21.95;100.00;100667.19;5036257;28;62970;-84
2023/07/27 04:27:16;;;;;;;;;0.00;0.00;;;;;21.98;100.00;100665.25;5034904;28;45361;-84
2023/07/27 04:29:41;;;;;;;;;0.00;0.00;;;;;21.98;100.00;100665.25;5017877;28;66561;-83
2023/07/27 04:32:07;;;;;;;;;0.00;0.00;;;;;22.01;100.00;100666.09;5034179;28;60053;-83
2023/07/27 04:34:32;;;;;;;;;0.00;0.00;;;;;21.95;100.00;100651.06;5034819;28;48862;-84
2023/07/27 04:36:58;;;;;;;;;0.67;0.67;;;;;21.96;100.00;100651.00;5035099;28;65618;-84
2023/07/27 04:39:23;;;;;;;;;0.00;0.00;;;;;21.97;100.00;100658.13;5035817;28;63681;-83
2023/07/27 04:41:48;;;;;;;;;2.00;1.00;;;;;21.96;100.00;100650.13;5035892;28;45453;-85
2023/07/27 04:44:14;;;;;;;;;0.67;0.00;;;;;21.95;100.00;100657.31;5035542;28;67269;-85
2023/07/27 04:46:39;;;;;;;;;2.33;0.00;;;;;21.96;100.00;100664.44;5032280;28;45432;-84
2023/07/27 04:49:06;;;;;;;;;0.33;0.33;;;;;21.92;100.00;100668.19;5035338;28;50641;-84
2023/07/27 04:51:32;;;;;;;;;0.00;0.00;;;;;21.91;100.00;100663.75;5016282;28;45522;-86
2023/07/27 04:53:58;;;;;;;;;1.67;1.00;;;;;21.91;100.00;100666.44;5036206;28;46201;-84
2023/07/27 04:56:23;;;;;;;;;0.00;0.00;;;;;21.90;100.00;100659.31;5035716;28;45455;-84
2023/07/27 04:58:49;;;;;;;;;0.00;0.00;;;;;21.93;100.00;100658.31;5036390;28;45379;-85
2023/07/27 05:01:15;;;;;;;;;0.00;0.00;;;;;21.94;100.00;100654.66;5035639;28;45397;-84
2023/07/27 05:03:40;;;;;;;;;0.67;0.00;;;;;21.95;100.00;100654.63;5035644;28;68086;-83
2023/07/27 05:06:05;;;;;;;;;0.00;0.00;;;;;21.94;100.00;100638.53;5035505;28;65684;-85
2023/07/27 05:08:30;;;;;;;;;0.00;0.00;;;;;21.94;100.00;100638.53;5035296;28;49600;-85
2023/07/27 05:10:56;;;;;;;;;0.00;0.00;;;;;21.95;100.00;100645.69;5035620;28;46764;-84
2023/07/27 05:13:21;;;;;;;;;0.00;0.00;;;;;21.96;100.00;100648.31;5034391;28;68758;-84
2023/07/27 05:15:46;;;;;;;;;2.67;0.00;;;;;21.96;100.00;100644.75;5033888;28;58964;-86
2023/07/27 05:18:14;;;;;;;;;0.00;0.00;;;;;21.96;100.00;100651.00;5132735;22;63793;-84
2023/07/27 05:20:39;;;;;;;;;0.00;0.00;;;;;21.95;100.00;100657.31;5033512;28;45165;-86
2023/07/27 05:23:05;;;;;;;;;1.00;1.00;;;;;21.98;100.00;100641.06;5025576;28;58093;-85
2023/07/27 05:25:30;;;;;;;;;0.00;0.00;;;;;22.03;100.00;100643.56;5024237;28;65594;-86
2023/07/27 05:27:55;;;;;;;;;0.33;0.00;;;;;22.07;100.00;100652.41;5037250;28;62242;-84
2023/07/27 05:30:20;;;;;;;;;0.67;0.00;;;;;22.06;100.00;100664.97;5036832;28;59660;-84
2023/07/27 05:32:46;;;;;;;;;1.00;0.00;;;;;22.06;100.00;100648.84;5037298;28;47302;-85
2023/07/27 05:35:11;;;;;;;;;1.67;0.00;;;;;22.08;100.00;100654.16;5034724;28;65729;-84
2023/07/27 05:37:37;;;;;;;;;0.00;0.00;;;;;22.09;100.00;100658.59;5038085;28;63286;-84
2023/07/27 05:40:04;;;;;;;;;0.00;0.00;;;;;22.09;100.00;100648.69;5019077;28;45555;-84
2023/07/27 05:42:29;;;;;;;;;0.00;0.00;;;;;22.14;100.00;100653.94;5038734;28;46665;-85
2023/07/27 05:44:55;;;;;;;;;0.00;0.00;;;;;22.13;100.00;100654.88;5024779;28;45475;-85
2023/07/27 05:47:20;;;;;;;;;0.33;0.33;;;;;22.13;100.00;100657.56;5021874;28;45512;-85
2023/07/27 05:49:46;;;;;;;;;0.00;0.00;;;;;22.09;100.00;100654.06;5031870;28;51645;-84
2023/07/27 05:52:11;;;;;;;;;0.00;0.00;;;;;22.11;100.00;100649.56;5020645;28;46756;-84
2023/07/27 05:54:36;;;;;;;;;1.00;1.00;;;;;22.14;100.00;100664.69;5029579;28;66541;-84
2023/07/27 05:57:02;;;;;;;;;0.00;0.00;;;;;22.15;100.00;100663.75;5025670;28;59002;-85
2023/07/27 05:59:27;;;;;;;;;0.00;0.00;;;;;22.16;100.00;100652.06;5038885;28;45313;-84
2023/07/27 06:01:53;;;;;;;;;0.33;0.33;;;;;22.20;100.00;100651.00;5031537;28;67038;-85
2023/07/27 06:04:19;;;;;;;;;0.00;0.00;;;;;22.22;100.00;100647.31;5016955;28;64952;-84
2023/07/27 06:06:45;;;;;;;;;0.00;0.00;;;;;22.27;100.00;100651.66;5031837;28;45519;-85
2023/07/27 06:09:11;;;;;;;;;0.67;0.00;;;;;22.31;100.00;100648.75;5017957;28;45283;-84
2023/07/27 06:11:37;;;;;;;;;0.67;0.67;;;;;22.35;100.00;100639.63;5032201;28;48902;-85
2023/07/27 06:14:02;;;;;;;;;1.33;0.00;;;;;22.35;100.00;100626.16;5031532;28;45422;-85
2023/07/27 06:16:28;;;;;;;;;0.00;0.00;;;;;22.34;100.00;100628.94;5025881;28;45411;-85
2023/07/27 06:18:53;;;;;;;;;1.00;0.00;;;;;22.39;100.00;100641.25;5035018;28;49331;-82
2023/07/27 06:21:18;;;;;;;;;1.00;0.00;;;;;22.46;100.00;100647.25;5033462;28;69443;-84
2023/07/27 06:23:44;;;;;;;;;0.00;0.00;;;;;22.48;100.00;100640.88;5037900;28;45273;-84
2023/07/27 06:26:09;;;;;;;;;0.00;0.00;;;;;22.53;100.00;100642.47;5030082;28;56892;-85
2023/07/27 06:28:35;;;;;;;;;0.67;0.67;;;;;22.52;100.00;100644.31;5032222;28;61926;-87
2023/07/27 06:31:04;;;;;;;;;0.00;0.00;;;;;22.52;100.00;100646.13;5024929;28;45563;-84
2023/07/27 06:33:29;;;;;;;;;1.00;0.00;;;;;22.53;100.00;100651.47;5035056;28;45242;-85
2023/07/27 06:35:54;;;;;;;;;1.00;1.00;;;;;22.57;100.00;100654.88;5035333;28;47738;-84
2023/07/27 06:38:20;;;;;;;;;1.00;1.00;;;;;22.57;100.00;100652.19;5037385;28;56859;-84
2023/07/27 06:40:45;;;;;;;;;1.00;1.00;;;;;22.57;100.00;100654.88;5037559;28;49394;-84
2023/07/27 06:43:12;;;;;;;;;2.00;0.33;;;;;22.60;100.00;100663.72;5038105;28;45158;-85
2023/07/27 06:45:37;;;;;;;;;1.00;1.00;;;;;22.65;100.00;100668.91;5021683;28;45390;-85
2023/07/27 06:48:03;;;;;;;;;1.00;1.00;;;;;22.65;100.00;100658.16;5025786;28;45165;-84
2023/07/27 06:50:28;;;;;;;;;1.00;1.00;;;;;22.63;100.00;100652.81;5027680;28;46780;-85
2023/07/27 06:52:53;;;;;;;;;0.33;0.33;;;;;22.63;100.00;100658.19;5031454;28;55411;-84
2023/07/27 06:55:19;;;;;;;;;3.33;2.00;;;;;22.63;100.00;100657.31;5018850;28;54231;-86
2023/07/27 06:57:44;;;;;;;;;2.00;1.00;;;;;22.65;100.00;100660.84;5031652;28;45206;-85
2023/07/27 07:00:10;;;;;;;;;1.67;0.00;;;;;22.63;100.00;100663.56;5030834;28;46550;-84
2023/07/27 07:02:35;;;;;;;;;2.00;0.33;;;;;22.64;100.00;100664.47;5025591;28;45690;-84
2023/07/27 07:05:02;;;;;;;;;1.00;1.00;;;;;22.61;100.00;100664.59;5033700;28;61483;-85
2023/07/27 07:07:28;;;;;;;;;2.00;1.00;;;;;22.61;100.00;100675.34;5017028;28;45287;-85
2023/07/27 07:09:53;;;;;;;;;2.00;2.00;;;;;22.59;100.00;100663.78;5017171;28;46092;-84
2023/07/27 07:12:19;;;;;;;;;1.00;1.00;;;;;22.61;100.00;100657.38;5030510;28;45639;-83
2023/07/27 07:14:44;;;;;;;;;1.00;1.00;;;;;22.59;100.00;100653.91;5035245;28;45555;-87
2023/07/27 07:17:09;;;;;;;;;5.33;2.00;;;;;22.58;100.00;100664.69;5030044;28;58590;-83
2023/07/27 07:19:35;;;;;;;;;1.67;1.67;;;;;22.56;100.00;100677.34;5028964;28;55886;-85
2023/07/27 07:22:00;;;;;;;;;1.00;1.00;;;;;22.54;100.00;100672.03;5032047;28;45308;-83
2023/07/27 07:24:25;;;;;;;;;2.00;2.00;;;;;22.56;100.00;100663.91;5036753;28;61666;-84
2023/07/27 07:26:51;;;;;;;;;2.00;2.00;;;;;22.60;100.00;100670.91;5021114;28;59558;-84
2023/07/27 07:29:16;;;;;;;;;1.00;1.00;;;;;22.63;100.00;100663.56;5016621;28;65652;-85
2023/07/27 07:31:41;;;;;;;;;2.00;2.00;;;;;22.68;100.00;100669.63;5018282;28;66348;-84
2023/07/27 07:34:07;;;;;;;;;2.00;2.00;;;;;22.78;100.00;100648.59;5029201;28;63060;-85
2023/07/27 07:36:32;;;;;;;;;2.00;2.00;;;;;22.81;100.00;100663.75;5027394;28;62310;-85
2023/07/27 07:38:57;;;;;;;;;2.00;2.00;;;;;22.83;100.00;100668.13;5015683;28;64698;-85
2023/07/27 07:41:23;;;;;;;;;2.00;2.00;;;;;22.83;100.00;100668.13;5029266;28;62328;-84
2023/07/27 07:43:48;;;;;;;;;1.00;1.00;;;;;22.84;100.00;100674.38;5035199;28;56919;-83
2023/07/27 07:46:14;;;;;;;;;1.33;1.00;;;;;22.88;100.00;100671.53;5037809;28;45388;-83
2023/07/27 07:48:39;;;;;;;;;2.00;1.00;;;;;22.87;100.00;100669.75;5019013;28;47624;-84
2023/07/27 07:51:12;;;;;;;;;0.67;0.33;;;;;22.94;100.00;100657.81;5025294;28;60262;-84
2023/07/27 07:53:37;;;;;;;;;1.00;1.00;;;;;23.02;100.00;100662.88;5021094;28;45340;-84
2023/07/27 07:56:03;;;;;;;;;1.00;1.00;;;;;23.11;100.00;100666.97;5022632;28;45404;-85
2023/07/27 07:58:29;;;;;;;;;3.00;2.33;;;;;23.08;100.00;100672.50;5022257;28;45735;-83
2023/07/27 08:00:55;;;;;;;;;5.00;2.00;;;;;23.02;100.00;100672.78;5036838;28;45416;-82
2023/07/27 08:03:20;;;;;;;;;2.00;1.00;;;;;22.99;100.00;100680.03;5030498;28;54216;-83
2023/07/27 08:05:45;;;;;;;;;1.00;1.00;;;;;22.98;100.00;100661.25;5037203;28;45530;-82
2023/07/27 08:08:11;;;;;;;;;2.00;2.00;;;;;22.95;100.00;100655.97;5030277;28;68908;-83
2023/07/27 08:10:36;;;;;;;;;1.00;1.00;;;;;23.00;100.00;100662.91;5032064;28;45398;-85
2023/07/27 08:13:01;;;;;;;;;2.00;1.00;;;;;23.05;100.00;100667.25;5022029;28;45462;-84
2023/07/27 08:15:27;;;;;;;;;1.00;1.00;;;;;23.13;100.00;100654.34;5028898;28;56583;-84
2023/07/27 08:17:52;;;;;;;;;0.00;0.00;;;;;23.25;100.00;100657.34;5023021;28;48581;-83
2023/07/27 08:20:17;;;;;;;;;1.00;1.00;;;;;23.28;100.00;100648.28;5014967;28;67915;-83
2023/07/27 08:22:43;;;;;;;;;0.00;0.00;;;;;23.31;100.00;100658.03;5015417;28;45195;-84
2023/07/27 08:25:08;;;;;;;;;3.33;1.00;;;;;23.31;100.00;100653.50;5016276;28;45596;-84
2023/07/27 08:27:36;;;;;;;;;0.33;0.00;;;;;23.27;100.00;100644.66;5021835;28;45962;-84
2023/07/27 08:30:02;;;;;;;;;0.00;0.00;;;;;23.26;100.00;100651.00;5023833;28;45364;-82
2023/07/27 08:32:27;;;;;;;;;1.00;1.00;;;;;23.25;100.00;100654.66;5034299;28;45483;-84
2023/07/27 08:34:53;;;;;;;;;0.67;0.67;;;;;23.23;100.00;100645.78;5023899;28;46882;-84
2023/07/27 08:37:18;;;;;;;;;0.00;0.00;;;;;23.25;100.00;100638.50;5034054;28;69678;-83
2023/07/27 08:39:43;;;;;;;;;1.00;1.00;;;;;23.29;100.00;100652.72;5022521;28;46112;-83
2023/07/27 08:42:14;;;;;;;;;0.00;0.00;;;;;23.30;100.00;100640.97;5032773;28;45496;-81
2023/07/27 08:44:41;;;;;;;;;1.00;1.00;;;;;23.28;100.00;100650.97;5015310;28;45215;-83
2023/07/27 08:47:06;;;;;;;;;0.00;0.00;;;;;23.32;100.00;100646.28;5028482;28;45581;-83
2023/07/27 08:49:32;;;;;;;;;0.33;0.00;;;;;23.40;100.00;100645.00;5031100;28;67956;-84
2023/07/27 08:51:57;;;;;;;;;0.00;0.00;;;;;23.47;100.00;100641.09;5021074;28;57716;-84
2023/07/27 08:54:23;;;;;;;;;0.33;0.33;;;;;23.55;100.00;100640.75;5036155;28;60243;-83
2023/07/27 08:56:48;;;;;;;;;0.00;0.00;;;;;23.63;100.00;100632.34;5019106;28;66204;-86
2023/07/27 08:59:14;;;;;;;;;0.00;0.00;;;;;23.72;100.00;100638.19;5031072;28;54510;-85
2023/07/27 09:01:39;;;;;;;;;1.00;1.00;;;;;23.86;100.00;100631.25;5035819;28;45490;-83
2023/07/27 09:04:05;;;;;;;;;2.00;0.00;;;;;23.95;100.00;100625.44;5032731;28;56679;-85
2023/07/27 09:06:38;;;;;;;;;1.00;1.00;;;;;24.05;100.00;100635.72;5037570;28;46150;-84
2023/07/27 09:09:25;;;;;;;;;1.33;0.00;;;;;24.15;100.00;100651.47;5006185;28;45994;-83
2023/07/27 09:11:51;;;;;;;;;0.00;0.00;;;;;24.17;100.00;100646.84;5022217;28;45316;-83
2023/07/27 09:14:20;;;;;;;;;0.00;0.00;;;;;24.16;100.00;100645.09;5024732;28;45439;-84
2023/07/27 09:16:49;;;;;;;;;1.67;0.67;;;;;24.16;100.00;100642.41;5039128;28;46679;-86
2023/07/27 09:19:18;;;;;;;;;2.00;0.00;;;;;24.25;100.00;100636.56;5050760;28;45655;-83
2023/07/27 09:21:45;;;;;;;;;0.00;0.00;;;;;24.41;100.00;100648.41;5037722;28;45336;-82
2023/07/27 09:24:12;;;;;;;;;3.00;0.00;;;;;24.51;100.00;100636.19;5025290;28;45537;-84
2023/07/27 09:26:48;;;;;;;;;0.00;0.00;;;;;24.58;100.00;100646.69;5019182;28;47635;-84
2023/07/27 09:29:15;;;;;;;;;0.33;0.33;;;;;24.67;100.00;100649.81;5018081;28;45500;-84
2023/07/27 09:31:57;;;;;;;;;1.00;1.00;;;;;24.73;100.00;100648.63;5031049;28;45547;-83
2023/07/27 09:34:24;;;;;;;;;0.00;0.00;;;;;24.76;100.00;100648.44;5018131;28;45511;-83
2023/07/27 09:36:49;;;;;;;;;0.67;0.67;;;;;24.80;100.00;100644.63;5020491;28;46279;-85
2023/07/27 09:39:15;;;;;;;;;0.00;0.00;;;;;24.85;100.00;100639.88;5037427;28;46079;-85
2023/07/27 09:41:45;;;;;;;;;2.00;1.00;;;;;24.96;100.00;100645.59;5036754;28;45444;-82
2023/07/27 09:44:15;;;;;;;;;1.00;0.00;;;;;25.09;100.00;100659.41;5038565;28;45553;-82
2023/07/27 09:46:47;;;;;;;;;1.00;1.00;;;;;25.18;100.00;100661.59;5024979;28;47624;-83
2023/07/27 09:49:14;;;;;;;;;1.00;1.00;;;;;25.25;100.00;100630.63;5017237;28;45457;-83
2023/07/27 09:51:40;;;;;;;;;2.00;2.00;;;;;25.36;100.00;100634.56;5022565;28;45287;-83
2023/07/27 09:54:06;;;;;;;;;1.00;1.00;;;;;25.42;100.00;100632.41;5017272;28;46813;-83
2023/07/27 09:56:31;;;;;;;;;3.00;1.00;;;;;25.45;100.00;100620.53;5004732;28;48632;-83
2023/07/27 09:58:58;;;;;;;;;4.00;4.00;;;;;25.46;100.00;100634.00;5029667;28;45419;-84
2023/07/27 10:01:23;;;;;;;;;1.00;1.00;;;;;25.43;100.00;100634.16;5030791;28;45234;-83
2023/07/27 10:03:49;;;;;;;;;2.00;2.00;;;;;25.35;100.00;100630.97;5023873;28;45616;-85
2023/07/27 10:06:18;;;;;;;;;3.00;2.00;;;;;25.25;100.00;100635.16;5027104;28;62309;-84
2023/07/27 10:08:44;;;;;;;;;4.67;3.33;;;;;25.17;100.00;100630.13;5030759;28;61645;-84
2023/07/27 10:11:10;;;;;;;;;5.00;5.00;;;;;25.12;100.00;100632.19;5031861;28;46035;-83
2023/07/27 10:13:38;;;;;;;;;4.33;3.67;;;;;25.12;100.00;100629.50;5018722;28;45574;-84
2023/07/27 10:16:09;;;;;;;;;1.33;0.33;;;;;25.17;100.00;100626.56;5006636;28;47769;-84
2023/07/27 10:18:46;;;;;;;;;1.00;1.00;;;;;25.21;100.00;100634.44;5014319;28;45693;-83
2023/07/27 10:21:21;;;;;;;;;1.00;1.00;;;;;25.17;100.00;100634.66;5000621;28;46260;-84
2023/07/27 10:23:57;;;;;;;;;1.00;1.00;;;;;25.13;100.00;100633.06;5022083;28;45607;-84
2023/07/27 10:26:52;;;;;;;;;2.00;0.00;;;;;25.13;100.00;100630.38;5037972;28;46445;-85
2023/07/27 10:29:26;;;;;;;;;0.33;0.33;;;;;25.13;100.00;100630.38;5012587;28;45438;-84
2023/07/27 10:32:08;;;;;;;;;2.67;1.00;;;;;25.14;100.00;100635.72;5034483;28;45468;-82
2023/07/27 10:34:34;;;;;;;;;2.00;2.00;;;;;25.21;100.00;100639.81;5027217;28;45443;-83
2023/07/27 10:37:02;;;;;;;;;1.33;1.33;;;;;25.21;100.00;100644.38;5036061;28;46614;-85
2023/07/27 10:39:42;;;;;;;;;1.00;1.00;;;;;25.19;100.00;100639.03;5036438;28;45432;-84
2023/07/27 10:42:12;;;;;;;;;2.00;2.00;;;;;25.18;100.00;100639.09;5032824;28;45156;-83
2023/07/27 10:44:45;;;;;;;;;1.00;1.00;;;;;25.22;100.00;100636.16;5028326;28;45595;-84
2023/07/27 10:47:15;;;;;;;;;1.00;1.00;;;;;25.24;100.00;100633.38;5032481;28;47395;-82
2023/07/27 10:49:44;;;;;;;;;1.33;1.00;;;;;25.22;100.00;100628.06;5037843;28;45332;-83
2023/07/27 10:52:14;;;;;;;;;1.00;1.00;;;;;25.27;100.00;100628.69;5017031;28;45326;-84
2023/07/27 10:54:40;;;;;;;;;3.00;3.00;;;;;25.23;100.00;100648.72;5032434;28;45358;-82
2023/07/27 10:57:06;;;;;;;;;1.33;1.00;;;;;25.17;100.00;100646.34;5018496;28;46640;-83
2023/07/27 10:59:36;;;;;;;;;2.00;2.00;;;;;25.07;100.00;100643.25;5018412;28;45352;-84
2023/07/27 11:02:01;;;;;;;;;8.33;8.33;;;;;24.97;100.00;100636.53;5021178;28;45491;-83
2023/07/27 11:04:27;;;;;;;;;3.33;3.00;;;;;24.83;100.00;100639.09;5001465;28;45318;-86
2023/07/27 11:06:53;;;;;;;;;23.00;21.00;;;;;24.73;100.00;100646.78;5020623;28;46630;-84
2023/07/27 11:09:18;;;;;;;;;0.67;0.67;;;;;24.63;100.00;100640.09;5022881;28;45264;-86
2023/07/27 11:11:44;;;;;;;;;4.67;3.00;;;;;24.55;100.00;100643.19;5023508;28;45228;-83
2023/07/27 11:14:10;;;;;;;;;3.00;2.00;;;;;24.41;100.00;100648.41;5027466;28;45501;-84
2023/07/27 11:16:37;;;;;;;;;3.00;3.00;;;;;24.24;100.00;100651.88;4999637;28;47745;-83